createdAt,value
2023-02-19T00:01:13.390Z,95278.88
2023-02-19T00:03:41.205Z,95280.63
2023-02-19T00:06:10.622Z,95271.47
2023-02-19T00:08:38.796Z,95257.06
2023-02-19T00:11:17.860Z,95243.41
2023-02-19T00:13:47.990Z,95267.19
2023-02-19T00:16:23.138Z,95239.25
2023-02-19T00:18:50.546Z,95268.81
2023-02-19T00:21:17.972Z,95266.53
2023-02-19T00:23:49.246Z,95241.84
2023-02-19T00:26:18.475Z,95243.78
2023-02-19T00:28:49.845Z,95245.59
2023-02-19T00:31:22.825Z,95257.50
2023-02-19T00:33:51.969Z,95235.78
2023-02-19T00:36:19.137Z,95216.84
2023-02-19T00:38:46.292Z,95238.34
2023-02-19T00:41:20.323Z,95228.66
2023-02-19T00:43:57.383Z,95236.00
2023-02-19T00:46:30.297Z,95217.44
2023-02-19T00:48:57.819Z,95216.28
2023-02-19T00:51:27.305Z,95195.81
2023-02-19T00:53:54.238Z,95221.84
2023-02-19T00:56:21.298Z,95200.84
2023-02-19T00:58:48.845Z,95220.66
2023-02-19T01:01:16.410Z,95216.25
2023-02-19T01:03:43.572Z,95221.09
2023-02-19T01:06:13.019Z,95229.03
2023-02-19T01:08:39.691Z,95216.88
2023-02-19T01:11:07.644Z,95219.25
2023-02-19T01:13:34.685Z,95224.38
2023-02-19T01:16:04.094Z,95225.31
2023-02-19T01:18:32.184Z,95217.75
2023-02-19T01:20:59.086Z,95213.28
2023-02-19T01:23:26.172Z,95206.25
2023-02-19T01:25:52.809Z,95221.00
2023-02-19T01:28:19.562Z,95207.38
2023-02-19T01:30:46.189Z,95223.41
2023-02-19T01:33:12.751Z,95224.41
2023-02-19T01:35:40.025Z,95208.81
2023-02-19T01:38:08.317Z,95230.00
2023-02-19T01:40:35.006Z,95228.31
2023-02-19T01:43:01.649Z,95238.81
2023-02-19T01:45:31.026Z,95229.94
2023-02-19T01:48:07.996Z,95244.25
2023-02-19T01:50:40.403Z,95224.66
2023-02-19T01:53:11.219Z,95239.63
2023-02-19T01:55:39.417Z,95207.75
2023-02-19T01:58:06.510Z,95236.25
2023-02-19T02:00:34.468Z,95237.50
2023-02-19T02:03:01.828Z,95251.63
2023-02-19T02:05:50.967Z,95244.09
2023-02-19T02:08:37.102Z,95262.44
2023-02-19T02:11:04.717Z,95255.00
2023-02-19T02:13:33.928Z,95245.81
2023-02-19T02:16:16.854Z,95244.75
2023-02-19T02:19:15.377Z,95259.28
2023-02-19T02:22:00.329Z,95257.59
2023-02-19T02:24:45.741Z,95257.53
2023-02-19T02:27:36.882Z,95260.28
2023-02-19T02:30:27.458Z,95259.91
2023-02-19T02:33:05.851Z,95276.28
2023-02-19T02:35:42.794Z,95246.47
2023-02-19T02:38:13.132Z,95247.50
2023-02-19T02:40:43.087Z,95265.50
2023-02-19T02:43:09.883Z,95263.66
2023-02-19T02:45:36.935Z,95258.31
2023-02-19T02:48:07.716Z,95270.13
2023-02-19T02:51:03.280Z,95274.06
2023-02-19T02:53:59.025Z,95258.38
2023-02-19T02:56:26.640Z,95271.66
2023-02-19T02:58:56.544Z,95274.47
2023-02-19T03:01:48.227Z,95273.47
2023-02-19T03:04:27.472Z,95247.13
2023-02-19T03:06:55.396Z,95274.47
2023-02-19T03:09:40.727Z,95275.81
2023-02-19T03:12:32.035Z,95273.03
2023-02-19T03:15:21.757Z,95271.25
2023-02-19T03:18:11.285Z,95257.22
2023-02-19T03:20:43.365Z,95288.41
2023-02-19T03:23:11.881Z,95288.03
2023-02-19T03:25:58.697Z,95291.31
2023-02-19T03:28:48.946Z,95270.84
2023-02-19T03:31:20.915Z,95295.44
2023-02-19T03:33:52.567Z,95285.59
2023-02-19T03:36:27.429Z,95302.72
2023-02-19T03:39:04.457Z,95301.47
2023-02-19T03:41:49.037Z,95309.16
2023-02-19T03:44:18.313Z,95302.16
2023-02-19T03:47:03.573Z,95318.16
2023-02-19T03:49:42.534Z,95317.50
2023-02-19T03:52:28.746Z,95294.81
2023-02-19T03:55:09.612Z,95308.78
2023-02-19T03:57:51.844Z,95322.25
2023-02-19T04:00:24.850Z,95327.66
2023-02-19T04:03:02.882Z,95312.00
2023-02-19T04:05:32.168Z,95317.13
2023-02-19T04:08:06.376Z,95297.16
2023-02-19T04:10:33.388Z,95285.34
2023-02-19T04:13:06.504Z,95327.53
2023-02-19T04:15:35.276Z,95327.84
2023-02-19T04:18:09.094Z,95324.94
2023-02-19T04:20:42.401Z,95324.97
2023-02-19T04:23:09.496Z,95339.00
2023-02-19T04:25:38.221Z,95310.03
2023-02-19T04:28:05.316Z,95333.47
2023-02-19T04:30:32.063Z,95328.28
2023-02-19T04:32:58.671Z,95306.13
2023-02-19T04:35:25.227Z,95334.22
2023-02-19T04:37:51.870Z,95340.09
2023-02-19T04:40:18.575Z,95338.00
2023-02-19T04:42:45.195Z,95342.13
2023-02-19T04:45:11.775Z,95345.03
2023-02-19T04:47:38.380Z,95351.47
2023-02-19T04:50:05.265Z,95341.72
2023-02-19T04:52:33.344Z,95344.69
2023-02-19T04:54:59.964Z,95359.22
2023-02-19T04:57:26.662Z,95358.84
2023-02-19T04:59:53.573Z,95360.25
2023-02-19T05:02:20.302Z,95353.31
2023-02-19T05:04:46.843Z,95337.94
2023-02-19T05:07:13.606Z,95360.16
2023-02-19T05:09:40.230Z,95334.19
2023-02-19T05:12:07.082Z,95355.59
2023-02-19T05:14:33.834Z,95356.34
2023-02-19T05:17:00.409Z,95357.88
2023-02-19T05:19:27.107Z,95365.22
2023-02-19T05:21:53.758Z,95365.22
2023-02-19T05:24:20.503Z,95352.44
2023-02-19T05:26:48.301Z,95316.38
2023-02-19T05:29:14.903Z,95350.09
2023-02-19T05:31:41.690Z,95321.00
2023-02-19T05:34:08.390Z,95350.81
2023-02-19T05:36:34.939Z,95335.31
2023-02-19T05:39:01.685Z,95366.06
2023-02-19T05:41:30.678Z,95367.84
2023-02-19T05:43:58.028Z,95331.16
2023-02-19T05:46:27.376Z,95358.88
2023-02-19T05:48:54.467Z,95364.50
2023-02-19T05:51:23.555Z,95363.09
2023-02-19T05:53:51.202Z,95372.13
2023-02-19T05:56:23.737Z,95378.00
2023-02-19T05:58:50.397Z,95381.59
2023-02-19T06:01:19.252Z,95377.88
2023-02-19T06:03:46.022Z,95401.28
2023-02-19T06:06:14.526Z,95411.16
2023-02-19T06:08:41.279Z,95413.69
2023-02-19T06:11:08.264Z,95405.84
2023-02-19T06:13:35.264Z,95421.72
2023-02-19T06:16:06.218Z,95394.66
2023-02-19T06:18:33.006Z,95409.63
2023-02-19T06:21:04.617Z,95406.78
2023-02-19T06:23:31.945Z,95428.44
2023-02-19T06:26:10.075Z,95426.38
2023-02-19T06:28:37.126Z,95398.88
2023-02-19T06:31:05.112Z,95424.22
2023-02-19T06:33:32.365Z,95422.03
2023-02-19T06:36:01.697Z,95405.63
2023-02-19T06:38:28.799Z,95432.88
2023-02-19T06:40:55.775Z,95426.97
2023-02-19T06:43:22.395Z,95435.59
2023-02-19T06:45:49.081Z,95433.69
2023-02-19T06:48:15.795Z,95443.19
2023-02-19T06:50:42.400Z,95433.75
2023-02-19T06:53:10.085Z,95434.00
2023-02-19T06:55:36.713Z,95437.97
2023-02-19T06:58:03.268Z,95418.81
2023-02-19T07:00:30.078Z,95447.78
2023-02-19T07:02:56.766Z,95441.34
2023-02-19T07:05:23.559Z,95444.38
2023-02-19T07:07:50.187Z,95434.19
2023-02-19T07:10:17.281Z,95428.63
2023-02-19T07:12:43.992Z,95440.31
2023-02-19T07:15:10.704Z,95415.34
2023-02-19T07:17:37.321Z,95436.50
2023-02-19T07:20:04.238Z,95405.84
2023-02-19T07:22:30.856Z,95422.53
2023-02-19T07:24:57.459Z,95417.34
2023-02-19T07:27:24.172Z,95395.19
2023-02-19T07:29:50.987Z,95423.66
2023-02-19T07:32:17.607Z,95409.53
2023-02-19T07:34:44.286Z,95404.13
2023-02-19T07:37:11.166Z,95383.06
2023-02-19T07:39:38.954Z,95380.84
2023-02-19T07:42:05.908Z,95389.16
2023-02-19T07:44:32.610Z,95397.66
2023-02-19T07:46:59.598Z,95394.44
2023-02-19T07:49:26.231Z,95390.91
2023-02-19T07:51:52.846Z,95375.06
2023-02-19T07:54:19.714Z,95402.03
2023-02-19T07:56:46.575Z,95407.91
2023-02-19T07:59:13.350Z,95350.06
2023-02-19T08:01:58.703Z,95389.38
2023-02-19T08:04:26.123Z,95402.72
2023-02-19T08:06:53.351Z,95405.09
2023-02-19T08:09:20.416Z,95393.78
2023-02-19T08:12:05.995Z,95348.09
2023-02-19T08:14:33.686Z,95366.91
2023-02-19T08:17:01.563Z,95385.22
2023-02-19T08:19:28.282Z,95322.50
2023-02-19T08:21:55.029Z,95393.69
2023-02-19T08:24:21.663Z,95398.81
2023-02-19T08:26:48.355Z,95373.91
2023-02-19T08:29:16.352Z,95393.72
2023-02-19T08:31:43.086Z,95396.47
2023-02-19T08:34:09.958Z,95391.84
2023-02-19T08:36:36.703Z,95393.34
2023-02-19T08:39:06.304Z,95353.75
2023-02-19T08:41:32.940Z,95376.25
2023-02-19T08:43:59.515Z,95341.38
2023-02-19T08:46:26.254Z,95364.34
2023-02-19T08:48:52.964Z,95366.50
2023-02-19T08:51:29.524Z,95347.31
2023-02-19T08:53:56.617Z,95367.09
2023-02-19T08:56:23.414Z,95367.06
2023-02-19T08:58:50.404Z,95312.94
2023-02-19T09:01:18.839Z,95354.50
2023-02-19T09:03:45.785Z,95364.22
2023-02-19T09:06:20.540Z,95352.84
2023-02-19T09:08:47.305Z,95350.50
2023-02-19T09:11:15.073Z,95343.91
2023-02-19T09:13:41.961Z,95283.59
2023-02-19T09:16:08.960Z,95314.94
2023-02-19T09:18:36.506Z,95335.94
2023-02-19T09:21:05.483Z,95339.63
2023-02-19T09:23:36.642Z,95324.13
2023-02-19T09:26:06.824Z,95345.91
2023-02-19T09:28:33.436Z,95347.72
2023-02-19T09:31:08.404Z,95340.53
2023-02-19T09:33:35.620Z,95329.38
2023-02-19T09:36:03.013Z,95343.22
2023-02-19T09:38:34.046Z,95319.50
2023-02-19T09:41:07.944Z,95331.47
2023-02-19T09:43:35.641Z,95327.47
2023-02-19T09:46:26.331Z,95330.78
2023-02-19T09:49:03.683Z,95322.84
2023-02-19T09:51:33.950Z,95258.41
2023-02-19T09:54:04.320Z,95262.81
2023-02-19T09:56:31.404Z,95298.06
2023-02-19T09:59:02.000Z,95258.44
2023-02-19T10:01:33.591Z,95294.28
2023-02-19T10:04:04.056Z,95233.22
2023-02-19T10:06:32.740Z,95241.41
2023-02-19T10:09:24.125Z,95213.84
2023-02-19T10:11:52.660Z,95176.84
2023-02-19T10:14:35.500Z,95258.03
2023-02-19T10:17:05.480Z,95224.81
2023-02-19T10:19:48.009Z,95263.00
2023-02-19T10:22:14.640Z,95197.03
2023-02-19T10:24:42.853Z,95253.72
2023-02-19T10:27:14.947Z,95250.59
2023-02-19T10:29:48.048Z,95244.19
2023-02-19T10:32:24.315Z,95174.22
2023-02-19T10:35:14.128Z,95247.00
2023-02-19T10:37:50.654Z,95215.09
2023-02-19T10:40:23.550Z,95157.50
2023-02-19T10:42:59.616Z,95172.84
2023-02-19T10:45:47.677Z,95147.53
2023-02-19T10:48:28.353Z,95195.50
2023-02-19T10:51:05.065Z,95194.75
2023-02-19T10:53:50.701Z,95167.88
2023-02-19T10:56:29.833Z,95189.44
2023-02-19T10:59:16.399Z,95103.53
2023-02-19T11:02:01.804Z,95175.59
2023-02-19T11:04:35.200Z,95164.69
2023-02-19T11:07:17.083Z,95128.38
2023-02-19T11:09:53.559Z,95112.50
2023-02-19T11:12:29.904Z,95157.19
2023-02-19T11:14:57.023Z,95135.66
2023-02-19T11:17:29.334Z,95123.66
2023-02-19T11:19:58.830Z,95102.59
2023-02-19T11:22:42.114Z,95089.53
2023-02-19T11:25:15.482Z,95134.66
2023-02-19T11:28:08.058Z,95120.69
2023-02-19T11:30:38.546Z,95097.19
2023-02-19T11:33:17.290Z,95107.94
2023-02-19T11:35:47.932Z,95106.69
2023-02-19T11:38:19.711Z,95063.13
2023-02-19T11:41:04.995Z,95095.38
2023-02-19T11:43:50.372Z,95092.38
2023-02-19T11:46:28.773Z,95076.53
2023-02-19T11:49:34.086Z,95078.44
2023-02-19T11:52:34.194Z,95076.81
2023-02-19T11:55:20.962Z,95081.34
2023-02-19T11:57:58.919Z,95072.34
2023-02-19T12:00:29.168Z,95052.47
2023-02-19T12:03:32.027Z,95064.03
2023-02-19T12:06:12.678Z,95056.72
2023-02-19T12:09:15.119Z,95050.69
2023-02-19T12:12:21.816Z,95048.38
2023-02-19T12:15:49.003Z,95040.63
2023-02-19T12:18:28.726Z,95034.56
2023-02-19T12:21:04.723Z,95031.91
2023-02-19T12:23:45.896Z,95031.69
2023-02-19T12:26:25.054Z,95013.97
2023-02-19T12:29:12.615Z,95006.56
2023-02-19T12:31:56.362Z,95009.09
2023-02-19T12:34:32.212Z,95006.34
2023-02-19T12:37:11.744Z,94995.22
2023-02-19T12:39:49.677Z,94990.22
2023-02-19T12:42:34.849Z,94982.22
2023-02-19T12:45:07.337Z,94942.50
2023-02-19T12:47:40.886Z,94937.88
2023-02-19T12:50:21.870Z,94978.88
2023-02-19T12:53:14.396Z,94923.81
2023-02-19T12:55:45.331Z,94962.16
2023-02-19T12:58:21.891Z,94917.22
2023-02-19T13:00:53.373Z,94919.06
2023-02-19T13:03:34.904Z,94947.63
2023-02-19T13:06:04.576Z,94941.97
2023-02-19T13:11:37.767Z,94931.06
2023-02-19T13:14:21.822Z,94930.91
2023-02-19T13:16:55.890Z,94905.41
2023-02-19T13:19:22.551Z,94897.31
2023-02-19T13:22:22.247Z,94910.34
2023-02-19T13:24:50.973Z,94911.44
2023-02-19T13:30:32.648Z,94895.03
2023-02-19T13:33:32.386Z,94899.19
2023-02-19T13:36:24.135Z,94880.94
2023-02-19T13:38:57.763Z,94895.84
2023-02-19T13:41:28.763Z,94887.44
2023-02-19T13:43:59.620Z,94846.47
2023-02-19T13:46:40.624Z,94857.88
2023-02-19T13:49:29.205Z,94875.25
2023-02-19T13:51:56.995Z,94876.94
2023-02-19T13:54:31.474Z,94835.50
2023-02-19T13:57:19.811Z,94876.38
2023-02-19T13:59:48.282Z,94861.63
2023-02-19T14:02:21.307Z,94862.72
2023-02-19T14:04:51.976Z,94856.25
2023-02-19T14:07:19.006Z,94862.16
2023-02-19T14:09:47.206Z,94820.91
2023-02-19T14:12:15.907Z,94852.16
2023-02-19T14:14:47.114Z,94851.88
2023-02-19T14:17:29.376Z,94849.75
2023-02-19T14:20:22.881Z,94856.00
2023-02-19T14:23:01.593Z,94834.13
2023-02-19T14:25:31.192Z,94851.06
2023-02-19T14:28:06.823Z,94839.38
2023-02-19T14:30:35.328Z,94823.31
2023-02-19T14:33:15.786Z,94815.53
2023-02-19T14:35:45.529Z,94786.56
2023-02-19T14:38:24.233Z,94827.94
2023-02-19T14:40:54.608Z,94819.69
2023-02-19T14:43:24.552Z,94833.25
2023-02-19T14:46:04.644Z,94802.94
2023-02-19T14:48:37.135Z,94800.72
2023-02-19T14:51:08.962Z,94828.28
2023-02-19T14:53:42.133Z,94788.13
2023-02-19T14:56:21.448Z,94819.31
2023-02-19T14:59:17.186Z,94821.31
2023-02-19T15:01:44.463Z,94803.88
2023-02-19T15:04:37.576Z,94823.91
2023-02-19T15:07:08.804Z,94743.94
2023-02-19T15:09:43.804Z,94774.47
2023-02-19T15:12:26.289Z,94782.25
2023-02-19T15:15:01.407Z,94807.69
2023-02-19T15:17:31.844Z,94821.00
2023-02-19T15:20:03.253Z,94815.16
2023-02-19T15:22:33.928Z,94804.50
2023-02-19T15:25:05.375Z,94817.00
2023-02-19T15:27:33.009Z,94830.25
2023-02-19T15:29:59.887Z,94787.06
2023-02-19T15:32:28.159Z,94812.78
2023-02-19T15:35:00.491Z,94812.84
2023-02-19T15:37:31.098Z,94840.06
2023-02-19T15:40:00.681Z,94807.16
2023-02-19T15:43:38.622Z,94814.41
2023-02-19T15:47:10.697Z,94743.47
2023-02-19T15:52:50.276Z,94852.69
2023-02-19T15:55:27.185Z,94860.44
2023-02-19T15:58:28.942Z,94813.38
2023-02-19T16:01:03.645Z,94867.84
2023-02-19T16:03:35.419Z,94877.06
2023-02-19T16:06:11.549Z,94852.81
2023-02-19T16:08:43.562Z,94870.31
2023-02-19T16:11:22.474Z,94866.03
2023-02-19T16:13:52.534Z,94862.47
2023-02-19T16:16:34.946Z,94867.16
2023-02-19T16:19:02.457Z,94861.53
2023-02-19T16:21:29.418Z,94829.66
2023-02-19T16:24:13.923Z,94875.25
2023-02-19T16:26:42.239Z,94888.16
2023-02-19T16:29:27.828Z,94887.53
2023-02-19T16:31:58.142Z,94908.16
2023-02-19T16:34:49.313Z,94820.81
2023-02-19T16:37:41.202Z,94872.63
2023-02-19T16:40:08.014Z,94903.34
2023-02-19T16:42:36.264Z,94896.59
2023-02-19T16:45:03.157Z,94912.56
2023-02-19T16:47:32.162Z,94905.31
2023-02-19T16:50:01.774Z,94901.66
2023-02-19T16:52:29.364Z,94908.72
2023-02-19T16:54:56.451Z,94853.47
2023-02-19T16:57:23.439Z,94854.09
2023-02-19T16:59:50.481Z,94929.84
2023-02-19T17:02:21.358Z,94872.16
2023-02-19T17:04:49.387Z,94853.28
2023-02-19T17:07:18.584Z,94941.59
2023-02-19T17:09:45.365Z,94858.78
2023-02-19T17:12:20.013Z,94876.75
2023-02-19T17:14:47.257Z,94892.13
2023-02-19T17:17:14.166Z,94938.94
2023-02-19T17:19:41.100Z,94961.47
2023-02-19T17:22:19.456Z,94941.13
2023-02-19T17:24:47.570Z,94923.56
2023-02-19T17:27:17.680Z,94920.41
2023-02-19T17:29:50.343Z,94921.28
2023-02-19T17:32:40.096Z,94937.50
2023-02-19T17:35:15.917Z,94867.88
2023-02-19T17:37:56.918Z,94835.31
2023-02-19T17:40:39.608Z,94973.19
2023-02-19T17:46:27.864Z,94943.28
2023-02-19T17:49:10.616Z,94966.34
2023-02-19T17:51:38.833Z,94960.25
2023-02-19T17:54:08.351Z,94933.53
2023-02-19T17:57:01.115Z,94884.44
2023-02-19T17:59:32.219Z,94984.47
2023-02-19T18:02:12.652Z,94872.06
2023-02-19T18:04:41.105Z,94946.25
2023-02-19T18:07:08.018Z,95016.09
2023-02-19T18:09:34.831Z,94991.69
2023-02-19T18:12:02.657Z,94934.41
2023-02-19T18:14:32.242Z,94974.63
2023-02-19T18:16:59.180Z,94964.09
2023-02-19T18:19:26.188Z,94989.72
2023-02-19T18:21:53.240Z,94935.72
2023-02-19T18:24:20.079Z,94972.66
2023-02-19T18:26:46.884Z,94990.03
2023-02-19T18:29:13.802Z,94934.19
2023-02-19T18:31:44.617Z,95024.91
2023-02-19T18:34:19.115Z,95026.31
2023-02-19T18:36:47.634Z,95012.53
2023-02-19T18:39:14.770Z,95027.06
2023-02-19T18:41:41.596Z,94977.47
2023-02-19T18:44:23.733Z,94993.03
2023-02-19T18:46:51.177Z,95019.44
2023-02-19T18:49:18.494Z,95031.00
2023-02-19T18:51:46.901Z,95047.63
2023-02-19T18:54:14.303Z,95029.03
2023-02-19T18:56:46.150Z,95003.50
2023-02-19T18:59:13.768Z,95009.66
2023-02-19T19:01:40.705Z,95018.91
2023-02-19T19:04:07.871Z,95044.88
2023-02-19T19:06:35.910Z,95036.25
2023-02-19T19:09:03.896Z,95075.22
2023-02-19T19:11:31.079Z,95063.09
2023-02-19T19:13:58.125Z,95091.69
2023-02-19T19:16:29.929Z,95072.03
2023-02-19T19:18:57.024Z,95102.13
2023-02-19T19:21:24.033Z,95102.13
2023-02-19T19:23:51.092Z,95083.00
2023-02-19T19:26:17.873Z,95111.78
2023-02-19T19:28:44.995Z,95050.94
2023-02-19T19:31:13.023Z,95083.03
2023-02-19T19:33:43.828Z,95099.97
2023-02-19T19:36:11.684Z,95050.28
2023-02-19T19:38:39.238Z,95075.56
2023-02-19T19:41:06.050Z,95108.44
2023-02-19T19:43:33.629Z,95081.72
2023-02-19T19:46:03.875Z,95098.97
2023-02-19T19:48:33.874Z,95103.72
2023-02-19T19:51:03.472Z,95030.31
2023-02-19T19:53:30.346Z,95088.25
2023-02-19T19:55:57.676Z,95000.69
2023-02-19T19:58:27.225Z,95095.06
2023-02-19T20:00:54.435Z,95078.25
2023-02-19T20:03:23.465Z,95094.47
2023-02-19T20:05:51.286Z,95080.09
2023-02-19T20:08:18.351Z,95084.47
2023-02-19T20:10:45.530Z,95076.78
2023-02-19T20:13:15.717Z,95098.75
2023-02-19T20:15:42.389Z,95116.41
2023-02-19T20:18:09.586Z,95139.88
2023-02-19T20:20:36.354Z,95137.16
2023-02-19T20:23:03.358Z,95148.47
2023-02-19T20:25:30.158Z,95043.38
2023-02-19T20:27:57.041Z,95166.81
2023-02-19T20:30:24.835Z,95143.28
2023-02-19T20:32:52.210Z,95089.31
2023-02-19T20:35:22.073Z,95165.06
2023-02-19T20:37:49.574Z,95042.91
2023-02-19T20:41:03.383Z,95036.34
2023-02-19T20:43:34.755Z,95064.31
2023-02-19T20:46:32.493Z,95188.38
2023-02-19T20:49:08.781Z,95050.59
2023-02-19T20:51:47.643Z,95111.25
2023-02-19T20:54:18.642Z,95130.50
2023-02-19T20:56:55.531Z,95104.16
2023-02-19T20:59:28.866Z,95170.09
2023-02-19T21:02:19.328Z,95060.44
2023-02-19T21:04:48.826Z,95068.19
2023-02-19T21:07:15.842Z,95197.66
2023-02-19T21:09:53.236Z,95120.22
2023-02-19T21:12:22.318Z,95171.50
2023-02-19T21:14:49.593Z,95073.66
2023-02-19T21:17:16.943Z,95123.88
2023-02-19T21:19:50.144Z,95113.28
2023-02-19T21:22:24.263Z,95136.00
2023-02-19T21:24:53.039Z,95078.78
2023-02-19T21:27:20.966Z,95222.00
2023-02-19T21:29:48.793Z,95197.59
2023-02-19T21:32:16.870Z,95120.09
2023-02-19T21:34:43.757Z,95139.06
2023-02-19T21:37:13.905Z,95150.56
2023-02-19T21:39:57.900Z,95227.31
2023-02-19T21:45:32.646Z,95092.72
2023-02-19T21:47:59.414Z,95194.63
2023-02-19T21:50:26.081Z,95135.84
2023-02-19T21:52:52.938Z,95222.63
2023-02-19T21:55:19.541Z,95240.75
2023-02-19T21:57:46.100Z,95215.16
2023-02-19T22:00:13.480Z,95229.25
2023-02-19T22:02:40.126Z,95210.16
2023-02-19T22:05:07.124Z,95209.16
2023-02-19T22:07:33.829Z,95232.03
2023-02-19T22:10:00.422Z,95229.16
2023-02-19T22:12:26.999Z,95232.31
2023-02-19T22:14:53.602Z,95222.19
2023-02-19T22:17:20.725Z,95255.66
2023-02-19T22:19:47.357Z,95247.00
2023-02-19T22:22:14.827Z,95263.97
2023-02-19T22:24:41.501Z,95257.88
2023-02-19T22:27:08.159Z,95249.59
2023-02-19T22:29:34.897Z,95260.50
2023-02-19T22:32:01.590Z,95268.97
2023-02-19T22:34:28.255Z,95245.44
2023-02-19T22:36:54.856Z,95263.50
2023-02-19T22:39:25.568Z,95258.03
2023-02-19T22:41:53.586Z,95274.41
2023-02-19T22:44:20.516Z,95276.19
2023-02-19T22:46:55.467Z,95269.47
2023-02-19T22:49:23.163Z,95280.38
2023-02-19T22:51:53.600Z,95278.69
2023-02-19T22:54:25.011Z,95269.09
2023-02-19T22:56:51.725Z,95236.69
2023-02-19T22:59:18.340Z,95254.41
2023-02-19T23:01:44.934Z,95260.50
2023-02-19T23:04:11.699Z,95253.34
2023-02-19T23:06:41.516Z,95252.75
2023-02-19T23:09:17.596Z,95232.00
2023-02-19T23:11:44.919Z,95237.03
2023-02-19T23:14:11.899Z,95220.00
2023-02-19T23:16:38.659Z,95244.84
2023-02-19T23:19:07.449Z,95252.41
2023-02-19T23:21:34.376Z,95240.28
2023-02-19T23:24:01.152Z,95250.59
2023-02-19T23:26:27.764Z,95254.38
2023-02-19T23:28:54.391Z,95244.66
2023-02-19T23:31:21.106Z,95257.22
2023-02-19T23:33:47.897Z,95254.91
2023-02-19T23:36:15.461Z,95252.91
2023-02-19T23:38:46.130Z,95235.88
2023-02-19T23:41:15.608Z,95257.69
2023-02-19T23:43:42.282Z,95269.34
2023-02-19T23:46:09.506Z,95276.88
2023-02-19T23:48:36.233Z,95277.34
2023-02-19T23:51:02.913Z,95270.78
2023-02-19T23:53:29.493Z,95279.69
2023-02-19T23:55:56.366Z,95302.38
2023-02-19T23:58:23.121Z,95283.81
